Time;durP1;ratioP1;P1;durP2;ratioP2;P2;SDS_P1;SDS_P2;PMS_P1;PMS_P2;Temp;Humidity;BMP_temperature;BMP_pressure;BME280_temperature;BME280_humidity;BME280_pressure;Samples;Min_cycle;Max_cycle;Signal;HPM_P1;HPM_P2
2022/03/05 00:01:17;;;;;;;17.27;10.48;;;10.30;83.60;;;;;;5032378;28;20036;-68
2022/03/05 00:03:43;;;;;;;16.00;10.98;;;10.40;82.80;;;;;;5035536;28;20060;-68
2022/03/05 00:06:09;;;;;;;21.02;12.70;;;10.30;83.70;;;;;;5038205;28;20784;-68
2022/03/05 00:08:34;;;;;;;16.80;10.85;;;10.40;82.80;;;;;;5032987;28;20136;-68
2022/03/05 00:11:00;;;;;;;19.08;11.30;;;10.40;82.60;;;;;;5031283;28;20484;-68
2022/03/05 00:13:26;;;;;;;15.45;10.07;;;10.50;82.30;;;;;;5033098;28;20049;-68
2022/03/05 00:15:52;;;;;;;15.63;10.57;;;10.60;81.50;;;;;;5032618;28;20456;-68
2022/03/05 00:18:17;;;;;;;14.73;10.30;;;10.70;80.90;;;;;;5037777;28;20036;-68
2022/03/05 00:20:45;;;;;;;14.82;10.07;;;10.60;81.30;;;;;;5032004;28;20104;-68
2022/03/05 00:23:11;;;;;;;14.43;10.50;;;10.60;82.20;;;;;;5036699;28;20181;-68
2022/03/05 00:25:40;;;;;;;16.48;9.15;;;10.60;82.90;;;;;;5034139;28;20396;-68
2022/03/05 00:28:05;;;;;;;15.27;9.57;;;10.60;82.70;;;;;;5024366;28;20476;-68
2022/03/05 00:30:31;;;;;;;12.63;8.70;;;10.50;82.00;;;;;;5042012;28;20137;-68
2022/03/05 00:32:57;;;;;;;14.05;8.15;;;10.50;83.40;;;;;;5037497;28;20267;-68
2022/03/05 00:35:23;;;;;;;10.85;8.55;;;10.50;82.10;;;;;;5037207;28;20021;-67
2022/03/05 00:37:48;;;;;;;13.15;8.60;;;10.60;83.20;;;;;;5038591;28;20032;-68
2022/03/05 00:40:14;;;;;;;12.43;8.10;;;10.50;81.70;;;;;;5043715;28;20041;-68
2022/03/05 00:42:41;;;;;;;11.40;8.32;;;10.50;82.80;;;;;;5048439;28;20068;-68
2022/03/05 00:45:07;;;;;;;10.85;7.90;;;10.50;83.50;;;;;;5046909;28;20081;-68
2022/03/05 00:47:34;;;;;;;13.60;8.60;;;10.40;83.70;;;;;;5043175;28;20029;-68
2022/03/05 00:50:01;;;;;;;12.80;9.63;;;10.40;85.30;;;;;;5037986;28;20029;-68
2022/03/05 00:52:26;;;;;;;20.45;12.55;;;9.90;84.40;;;;;;5046225;28;20033;-67
2022/03/05 00:54:52;;;;;;;20.75;12.82;;;9.50;87.90;;;;;;5049861;28;20033;-68
2022/03/05 00:57:18;;;;;;;21.27;13.32;;;9.20;90.10;;;;;;5052404;28;20017;-68
2022/03/05 00:59:44;;;;;;;26.13;15.13;;;9.10;90.80;;;;;;5048554;28;20084;-67
2022/03/05 01:02:09;;;;;;;21.88;14.57;;;9.00;91.20;;;;;;5052131;28;20114;-68
2022/03/05 01:04:35;;;;;;;23.02;14.40;;;8.90;91.20;;;;;;5052501;28;20203;-68
2022/03/05 01:07:01;;;;;;;23.40;14.50;;;8.70;90.80;;;;;;5052308;28;20033;-68
2022/03/05 01:09:27;;;;;;;20.52;13.80;;;8.80;90.90;;;;;;5052023;28;20023;-68
2022/03/05 01:11:52;;;;;;;20.23;14.73;;;8.90;90.90;;;;;;5050791;28;20496;-68
2022/03/05 01:14:18;;;;;;;19.33;13.15;;;8.90;90.90;;;;;;5049664;28;20045;-68
2022/03/05 01:16:44;;;;;;;22.13;13.65;;;9.00;90.80;;;;;;5051092;28;20090;-67
2022/03/05 01:19:10;;;;;;;20.23;13.10;;;9.00;90.70;;;;;;5053271;28;20092;-67
2022/03/05 01:21:36;;;;;;;19.65;13.50;;;9.10;90.70;;;;;;5051430;28;20027;-67
2022/03/05 01:24:02;;;;;;;18.15;12.82;;;9.10;90.70;;;;;;5051438;28;20087;-68
2022/03/05 01:26:29;;;;;;;19.35;12.25;;;9.20;91.20;;;;;;5050975;28;20342;-68
2022/03/05 01:28:56;;;;;;;21.10;13.35;;;9.10;91.50;;;;;;5051779;28;20025;-68
2022/03/05 01:31:22;;;;;;;22.40;13.60;;;9.10;91.60;;;;;;5055808;28;20020;-68
2022/03/05 01:33:47;;;;;;;17.83;13.10;;;9.00;90.90;;;;;;5051295;28;20547;-68
2022/03/05 01:36:13;;;;;;;19.40;13.15;;;8.90;91.00;;;;;;5052741;28;20059;-67
2022/03/05 01:38:39;;;;;;;18.95;12.45;;;8.80;91.40;;;;;;5050685;28;20033;-68
2022/03/05 01:41:05;;;;;;;16.95;11.52;;;8.80;91.70;;;;;;5050407;28;20028;-68
2022/03/05 01:43:30;;;;;;;17.13;12.43;;;8.80;92.00;;;;;;5051938;28;20045;-67
2022/03/05 01:45:56;;;;;;;17.20;12.50;;;8.90;91.80;;;;;;5051019;28;20037;-68
2022/03/05 01:48:22;;;;;;;16.60;12.68;;;9.00;91.30;;;;;;5052716;28;20025;-68
2022/03/05 01:50:48;;;;;;;17.48;12.02;;;9.10;91.40;;;;;;5050958;28;20090;-68
2022/03/05 01:53:14;;;;;;;15.07;12.05;;;9.10;91.20;;;;;;5050942;28;20025;-68
2022/03/05 01:55:43;;;;;;;17.23;11.18;;;9.10;91.30;;;;;;5050343;28;20032;-68
2022/03/05 01:58:09;;;;;;;18.17;10.90;;;9.00;91.40;;;;;;5052005;28;20067;-68
2022/03/05 02:00:35;;;;;;;15.57;10.55;;;9.10;91.40;;;;;;5052474;28;20501;-68
2022/03/05 02:03:01;;;;;;;16.90;10.88;;;9.00;91.70;;;;;;5051259;28;20043;-68
2022/03/05 02:05:27;;;;;;;15.20;10.88;;;9.10;91.60;;;;;;5052222;28;20501;-67
2022/03/05 02:07:53;;;;;;;14.95;11.07;;;9.10;91.80;;;;;;5043348;28;20557;-68
2022/03/05 02:10:20;;;;;;;14.93;10.57;;;9.10;91.80;;;;;;5047844;28;20103;-68
2022/03/05 02:12:46;;;;;;;14.27;11.15;;;9.10;91.60;;;;;;5043091;28;20017;-68
2022/03/05 02:15:12;;;;;;;15.02;10.48;;;9.00;92.00;;;;;;5047649;28;20029;-68
2022/03/05 02:17:39;;;;;;;13.85;9.93;;;9.00;91.80;;;;;;5052357;28;20036;-68
2022/03/05 02:20:06;;;;;;;17.48;10.90;;;9.00;91.70;;;;;;5047857;28;20725;-68
2022/03/05 02:22:32;;;;;;;14.55;10.07;;;8.90;91.90;;;;;;5042480;28;20029;-68
2022/03/05 02:24:59;;;;;;;14.52;10.00;;;9.00;92.00;;;;;;5043463;28;20570;-69
2022/03/05 02:27:27;;;;;;;16.05;9.98;;;8.90;92.00;;;;;;5046077;28;20079;-69
2022/03/05 02:29:55;;;;;;;14.18;9.95;;;8.90;92.40;;;;;;5048156;28;20024;-68
2022/03/05 02:32:21;;;;;;;15.23;9.90;;;8.90;92.40;;;;;;5046274;28;20024;-68
2022/03/05 02:34:47;;;;;;;11.95;9.65;;;9.00;92.50;;;;;;5043340;28;20032;-69
2022/03/05 02:37:15;;;;;;;13.18;9.63;;;8.90;92.60;;;;;;5044317;28;20044;-68
2022/03/05 02:39:45;;;;;;;12.48;9.68;;;8.70;93.50;;;;;;5043576;28;20032;-68
2022/03/05 02:42:13;;;;;;;13.60;10.00;;;8.60;93.10;;;;;;5042905;28;20511;-68
2022/03/05 02:44:39;;;;;;;15.60;10.25;;;8.70;93.00;;;;;;5043817;28;20037;-68
2022/03/05 02:47:05;;;;;;;13.07;10.52;;;8.70;92.90;;;;;;5040372;28;20033;-68
2022/03/05 02:49:31;;;;;;;16.17;10.60;;;8.70;93.00;;;;;;5038923;28;20029;-68
2022/03/05 02:51:58;;;;;;;16.27;10.45;;;8.60;92.90;;;;;;5033944;28;20033;-68
2022/03/05 02:54:24;;;;;;;14.35;10.30;;;8.80;93.00;;;;;;5038232;28;20029;-68
2022/03/05 02:56:49;;;;;;;15.13;9.95;;;8.90;92.70;;;;;;5041379;28;20480;-68
2022/03/05 02:59:15;;;;;;;14.15;9.90;;;8.90;92.70;;;;;;5062559;28;20041;-68
2022/03/05 03:01:41;;;;;;;14.80;10.52;;;9.00;92.50;;;;;;5047358;28;20029;-69
2022/03/05 03:04:10;;;;;;;16.25;11.65;;;9.10;92.20;;;;;;5042715;28;20037;-68
2022/03/05 03:06:35;;;;;;;18.75;12.07;;;8.70;91.70;;;;;;5043685;28;20435;-68
2022/03/05 03:09:01;;;;;;;19.13;12.88;;;8.30;92.00;;;;;;5042514;28;20108;-68
2022/03/05 03:11:27;;;;;;;22.35;12.98;;;8.00;93.00;;;;;;5045055;28;20528;-68
2022/03/05 03:13:53;;;;;;;19.10;12.55;;;7.90;93.80;;;;;;5048468;28;20132;-68
2022/03/05 03:16:18;;;;;;;16.88;11.90;;;8.00;94.00;;;;;;5045234;28;20028;-68
2022/03/05 03:18:44;;;;;;;19.05;12.20;;;8.10;94.10;;;;;;5043826;28;20032;-68
2022/03/05 03:21:10;;;;;;;20.58;12.18;;;8.20;93.90;;;;;;5044901;28;20052;-68
2022/03/05 03:23:36;;;;;;;16.40;11.43;;;8.30;94.00;;;;;;5044212;28;20037;-68
2022/03/05 03:26:03;;;;;;;16.70;10.90;;;8.50;93.80;;;;;;5060913;28;20532;-67
2022/03/05 03:28:28;;;;;;;15.93;11.88;;;8.60;93.20;;;;;;5045654;28;20036;-67
2022/03/05 03:30:54;;;;;;;15.13;10.73;;;8.80;92.70;;;;;;5033717;28;20025;-67
2022/03/05 03:33:20;;;;;;;17.70;10.95;;;8.90;92.50;;;;;;5038971;28;20521;-67
2022/03/05 03:35:46;;;;;;;17.10;11.20;;;9.00;91.60;;;;;;5040633;28;20027;-67
2022/03/05 03:38:11;;;;;;;16.15;11.35;;;9.10;91.40;;;;;;5040227;28;20446;-67
2022/03/05 03:40:37;;;;;;;15.38;11.13;;;9.00;91.50;;;;;;5038709;28;20028;-67
2022/03/05 03:43:03;;;;;;;18.77;12.05;;;9.00;91.40;;;;;;5035565;28;20033;-67
2022/03/05 03:45:29;;;;;;;15.88;10.75;;;9.00;91.10;;;;;;5038548;28;20971;-68
2022/03/05 03:47:55;;;;;;;16.52;11.38;;;8.90;91.10;;;;;;5042090;28;20030;-67
2022/03/05 03:50:23;;;;;;;17.63;11.38;;;8.90;90.90;;;;;;5040556;28;20025;-67
2022/03/05 03:52:49;;;;;;;19.98;12.13;;;9.00;90.50;;;;;;5040336;28;20460;-67
2022/03/05 03:55:18;;;;;;;18.40;11.65;;;9.00;90.20;;;;;;5035760;28;20108;-68
2022/03/05 03:57:44;;;;;;;19.67;11.45;;;9.10;89.90;;;;;;5037187;28;20033;-67
2022/03/05 04:00:12;;;;;;;19.17;11.70;;;9.10;89.30;;;;;;5053114;28;20488;-68
2022/03/05 04:02:38;;;;;;;17.98;12.35;;;9.10;88.80;;;;;;5054166;28;20029;-67
2022/03/05 04:05:05;;;;;;;19.75;11.85;;;9.10;88.50;;;;;;5048140;28;20065;-67
2022/03/05 04:10:15;;;;;;;19.45;13.70;;;9.10;89.80;;;;;;5050549;28;20082;-68
2022/03/05 04:12:40;;;;;;;18.17;12.73;;;8.20;90.10;;;;;;5048608;28;20055;-68
2022/03/05 04:15:10;;;;;;;20.45;12.50;;;7.70;91.80;;;;;;5053309;28;20047;-68
2022/03/05 04:17:37;;;;;;;19.10;13.98;;;7.50;93.30;;;;;;5049047;28;20067;-68
2022/03/05 04:20:03;;;;;;;17.85;12.57;;;7.50;94.30;;;;;;5050746;28;20021;-68
2022/03/05 04:22:30;;;;;;;17.85;12.65;;;7.40;95.10;;;;;;5050279;28;20032;-68
2022/03/05 04:24:55;;;;;;;16.83;13.05;;;7.50;95.30;;;;;;5048917;28;20524;-69
2022/03/05 04:27:21;;;;;;;20.45;13.18;;;7.50;94.50;;;;;;5052057;28;20057;-68
2022/03/05 04:29:47;;;;;;;17.95;13.07;;;7.50;94.30;;;;;;5051982;28;20057;-69
2022/03/05 04:32:13;;;;;;;19.25;12.77;;;7.50;94.20;;;;;;5050461;28;20029;-68
2022/03/05 04:34:38;;;;;;;19.95;12.68;;;7.70;94.10;;;;;;5048400;28;20104;-68
2022/03/05 04:37:04;;;;;;;18.40;13.43;;;7.80;93.70;;;;;;5048052;28;20075;-68
2022/03/05 04:39:30;;;;;;;19.77;12.63;;;7.90;94.10;;;;;;5055215;28;20028;-68
2022/03/05 04:41:56;;;;;;;18.70;12.55;;;8.10;93.20;;;;;;5053870;28;20057;-68
2022/03/05 04:44:21;;;;;;;20.08;13.02;;;8.30;92.30;;;;;;5053581;28;20028;-68
2022/03/05 04:46:47;;;;;;;18.98;12.70;;;8.40;91.60;;;;;;5056229;28;20600;-68
2022/03/05 04:49:13;;;;;;;17.80;12.45;;;8.60;91.00;;;;;;5053622;28;20036;-68
2022/03/05 04:51:39;;;;;;;17.27;12.30;;;8.70;90.40;;;;;;5054100;28;20025;-69
2022/03/05 04:54:05;;;;;;;20.13;13.27;;;8.70;90.20;;;;;;5054275;28;20369;-68
2022/03/05 04:56:31;;;;;;;19.08;12.88;;;8.70;89.40;;;;;;5053329;28;20077;-68
2022/03/05 04:58:56;;;;;;;20.40;12.73;;;8.80;88.20;;;;;;5053399;28;20025;-68
2022/03/05 05:01:22;;;;;;;16.33;11.38;;;8.80;87.70;;;;;;5053640;28;20033;-68
2022/03/05 05:03:48;;;;;;;20.65;12.63;;;8.80;87.00;;;;;;5053599;28;20083;-68
2022/03/05 05:06:14;;;;;;;17.98;12.27;;;8.70;88.70;;;;;;5053710;28;20021;-68
2022/03/05 05:08:40;;;;;;;17.90;12.65;;;8.60;86.60;;;;;;5053050;28;20024;-68
2022/03/05 05:11:06;;;;;;;22.63;13.32;;;8.40;88.90;;;;;;5052644;28;20505;-68
2022/03/05 05:13:31;;;;;;;20.90;13.38;;;8.00;90.80;;;;;;5051516;28;20045;-69
2022/03/05 05:15:57;;;;;;;20.10;13.73;;;7.50;91.10;;;;;;5052997;28;20075;-68
2022/03/05 05:18:23;;;;;;;18.17;12.85;;;7.00;92.40;;;;;;5053694;28;20044;-68
2022/03/05 05:20:49;;;;;;;20.67;13.50;;;7.00;93.30;;;;;;5053289;28;20021;-68
2022/03/05 05:23:15;;;;;;;20.33;14.10;;;6.90;93.60;;;;;;5052379;28;20036;-68
2022/03/05 05:25:41;;;;;;;21.33;14.20;;;6.60;94.70;;;;;;5056977;28;20470;-68
2022/03/05 05:28:10;;;;;;;21.58;14.38;;;6.50;96.10;;;;;;5053582;28;20031;-68
2022/03/05 05:30:35;;;;;;;19.95;13.90;;;6.20;96.50;;;;;;5037149;28;20025;-68
2022/03/05 05:33:01;;;;;;;19.90;13.30;;;6.20;97.30;;;;;;5052181;28;20098;-68
2022/03/05 05:35:27;;;;;;;21.65;13.23;;;6.40;97.20;;;;;;5052855;28;20021;-68
2022/03/05 05:37:53;;;;;;;20.83;14.20;;;6.60;96.60;;;;;;5052304;28;20080;-68
2022/03/05 05:40:18;;;;;;;19.70;13.15;;;6.70;96.20;;;;;;5052869;28;20029;-68
2022/03/05 05:42:44;;;;;;;22.52;14.10;;;6.90;95.70;;;;;;5052989;28;20098;-68
2022/03/05 05:45:11;;;;;;;20.88;14.13;;;6.80;95.70;;;;;;5053055;28;20115;-68
2022/03/05 05:47:40;;;;;;;23.77;14.82;;;6.80;95.20;;;;;;5052289;28;20040;-68
2022/03/05 05:50:06;;;;;;;19.35;13.73;;;6.80;95.20;;;;;;5052504;28;20029;-68
2022/03/05 05:52:33;;;;;;;19.27;13.32;;;7.00;94.80;;;;;;5046729;28;20413;-68
2022/03/05 05:54:59;;;;;;;18.35;13.20;;;7.00;95.10;;;;;;5051852;28;20125;-68
2022/03/05 05:57:25;;;;;;;18.05;13.82;;;7.00;95.50;;;;;;5050851;28;20024;-69
2022/03/05 05:59:51;;;;;;;17.65;13.50;;;7.10;95.20;;;;;;5050730;28;20033;-68
2022/03/05 06:02:17;;;;;;;25.02;15.10;;;6.80;94.50;;;;;;5043520;28;20032;-68
2022/03/05 06:04:42;;;;;;;26.15;14.52;;;7.00;94.40;;;;;;5047934;28;20420;-68
2022/03/05 06:07:09;;;;;;;22.52;14.35;;;7.10;94.40;;;;;;5048385;28;20083;-69
2022/03/05 06:09:35;;;;;;;18.55;13.57;;;7.30;93.10;;;;;;5040573;28;20035;-68
2022/03/05 06:12:00;;;;;;;24.05;15.02;;;7.40;93.00;;;;;;5047802;28;20037;-67
2022/03/05 06:14:26;;;;;;;23.58;13.88;;;7.30;92.90;;;;;;5048090;28;20033;-67
2022/03/05 06:16:52;;;;;;;20.33;13.65;;;7.20;93.40;;;;;;5043855;28;20030;-68
2022/03/05 06:19:18;;;;;;;23.88;14.15;;;7.00;93.10;;;;;;5046088;28;20036;-68
2022/03/05 06:21:43;;;;;;;20.27;13.63;;;7.10;93.30;;;;;;5045395;28;20424;-68
2022/03/05 06:24:09;;;;;;;21.23;13.98;;;7.20;93.30;;;;;;5047891;28;20041;-69
2022/03/05 06:26:36;;;;;;;22.67;13.38;;;7.30;91.90;;;;;;5041557;28;20570;-68
2022/03/05 06:29:02;;;;;;;22.58;13.90;;;7.50;91.00;;;;;;5042941;28;20048;-68
2022/03/05 06:31:27;;;;;;;20.63;13.48;;;7.60;90.70;;;;;;5044875;28;20107;-68
2022/03/05 06:33:53;;;;;;;20.10;13.27;;;7.60;90.30;;;;;;5049737;28;20111;-69
2022/03/05 06:36:19;;;;;;;24.90;14.98;;;7.70;89.40;;;;;;5048807;28;20489;-69
2022/03/05 06:38:45;;;;;;;20.90;14.70;;;7.70;90.50;;;;;;5048199;28;20024;-69
2022/03/05 06:41:11;;;;;;;22.95;14.85;;;7.80;87.70;;;;;;5047568;28;20052;-69
2022/03/05 06:43:37;;;;;;;22.58;14.73;;;8.00;85.80;;;;;;5052493;28;20390;-69
2022/03/05 06:46:03;;;;;;;24.15;15.13;;;8.10;85.20;;;;;;5049810;28;20569;-69
2022/03/05 06:48:29;;;;;;;26.10;14.60;;;8.10;84.50;;;;;;5047540;28;20050;-69
2022/03/05 06:50:54;;;;;;;23.40;14.45;;;8.20;84.00;;;;;;5047945;28;20031;-69
2022/03/05 06:53:20;;;;;;;25.30;15.02;;;8.20;84.50;;;;;;5047742;28;20729;-68
2022/03/05 06:55:46;;;;;;;25.15;14.48;;;8.30;84.00;;;;;;5047970;28;20040;-69
2022/03/05 06:58:14;;;;;;;21.52;14.00;;;8.40;83.30;;;;;;5051145;28;20025;-69
2022/03/05 07:00:40;;;;;;;22.55;13.95;;;8.60;82.90;;;;;;5048253;28;20052;-69
2022/03/05 07:03:05;;;;;;;22.00;13.82;;;8.70;82.10;;;;;;5048359;28;20037;-69
2022/03/05 07:05:31;;;;;;;21.10;13.45;;;8.70;83.30;;;;;;5048315;28;20025;-68
2022/03/05 07:07:57;;;;;;;24.80;15.00;;;8.70;82.10;;;;;;5046605;28;20029;-69
2022/03/05 07:10:23;;;;;;;27.05;15.15;;;8.80;82.60;;;;;;5050467;28;20031;-69
2022/03/05 07:12:49;;;;;;;26.25;15.27;;;8.70;83.70;;;;;;5047484;28;20060;-69
2022/03/05 07:15:14;;;;;;;22.55;14.82;;;8.80;84.30;;;;;;5051262;28;20033;-69
2022/03/05 07:17:48;;;;;;;23.63;16.13;;;8.80;83.50;;;;;;5045476;28;20070;-71
2022/03/05 07:20:13;;;;;;;23.20;16.67;;;8.70;85.50;;;;;;5045518;28;20025;-69
2022/03/05 07:22:39;;;;;;;28.50;19.45;;;8.60;84.70;;;;;;5049386;28;20029;-71
2022/03/05 07:25:05;;;;;;;30.02;19.75;;;7.80;86.60;;;;;;5048086;28;20467;-70
2022/03/05 07:27:31;;;;;;;26.92;17.92;;;7.20;90.90;;;;;;5049369;28;20505;-70
2022/03/05 07:29:57;;;;;;;25.27;16.60;;;7.20;91.70;;;;;;5047648;28;20036;-70
2022/03/05 07:32:23;;;;;;;27.85;16.90;;;7.40;91.30;;;;;;5051923;28;20017;-70
2022/03/05 07:34:48;;;;;;;26.13;16.52;;;7.40;91.00;;;;;;5039292;28;20033;-70
2022/03/05 07:37:14;;;;;;;21.52;15.30;;;7.50;91.50;;;;;;5046949;28;20677;-70
2022/03/05 07:39:40;;;;;;;25.63;16.23;;;7.50;91.80;;;;;;5048410;28;20036;-70
2022/03/05 07:42:08;;;;;;;25.50;16.40;;;7.50;92.30;;;;;;5053015;28;20031;-70
2022/03/05 07:44:34;;;;;;;22.45;15.23;;;7.40;92.70;;;;;;5049770;28;20434;-71
2022/03/05 07:47:00;;;;;;;26.85;17.33;;;7.50;92.60;;;;;;5047761;28;20108;-73
2022/03/05 07:49:25;;;;;;;26.27;16.30;;;7.70;93.30;;;;;;5049505;28;20048;-70
2022/03/05 07:51:52;;;;;;;26.20;16.70;;;7.80;92.40;;;;;;5048568;28;20032;-70
2022/03/05 07:54:18;;;;;;;24.55;16.38;;;7.80;92.50;;;;;;5056921;28;20033;-70
2022/03/05 07:56:45;;;;;;;24.30;15.93;;;7.90;92.50;;;;;;5046812;28;20037;-70
2022/03/05 07:59:11;;;;;;;30.58;16.70;;;8.20;91.90;;;;;;5048021;28;20134;-70
2022/03/05 08:01:39;;;;;;;21.98;14.80;;;8.30;92.10;;;;;;5053736;28;20104;-71
2022/03/05 08:04:05;;;;;;;22.35;15.13;;;8.60;90.30;;;;;;5050525;28;20562;-70
2022/03/05 08:06:31;;;;;;;24.73;15.88;;;8.90;90.10;;;;;;5049193;28;20033;-70
2022/03/05 08:08:59;;;;;;;23.50;15.15;;;9.30;88.20;;;;;;5049013;28;20113;-70
2022/03/05 08:11:25;;;;;;;26.35;16.88;;;9.60;85.20;;;;;;5048078;28;20362;-72
2022/03/05 08:13:51;;;;;;;26.92;16.77;;;9.90;83.90;;;;;;5050553;28;20060;-72
2022/03/05 08:16:16;;;;;;;27.67;17.48;;;10.00;83.60;;;;;;5050748;28;20021;-72
2022/03/05 08:18:42;;;;;;;27.95;17.30;;;10.20;82.60;;;;;;5048635;28;20040;-72
2022/03/05 08:21:08;;;;;;;30.67;18.17;;;10.40;83.10;;;;;;5056753;28;20029;-72
2022/03/05 08:23:33;;;;;;;26.67;17.42;;;10.40;82.50;;;;;;5048260;28;20048;-70
2022/03/05 08:25:59;;;;;;;25.73;17.20;;;10.60;81.90;;;;;;5048673;28;20163;-71
2022/03/05 08:28:25;;;;;;;25.60;17.05;;;10.70;82.50;;;;;;5048835;28;20056;-65
2022/03/05 08:30:51;;;;;;;26.55;17.45;;;10.90;81.10;;;;;;5047401;28;20063;-62
2022/03/05 08:33:17;;;;;;;22.60;15.57;;;11.10;82.40;;;;;;5049444;28;20021;-63
2022/03/05 08:35:43;;;;;;;27.88;17.13;;;11.40;80.30;;;;;;5046259;28;20063;-63
2022/03/05 08:38:09;;;;;;;25.48;16.67;;;11.80;77.90;;;;;;5047055;28;20033;-66
2022/03/05 08:40:35;;;;;;;22.75;15.00;;;12.40;77.00;;;;;;5052623;28;20029;-62
2022/03/05 08:43:00;;;;;;;23.63;15.70;;;14.10;71.40;;;;;;5048067;28;20040;-63
2022/03/05 08:45:26;;;;;;;20.48;14.85;;;17.70;62.30;;;;;;5035164;28;20021;-63
2022/03/05 08:47:52;;;;;;;23.88;15.60;;;20.40;54.10;;;;;;5051834;28;20076;-63
2022/03/05 08:50:18;;;;;;;23.05;15.80;;;22.20;50.40;;;;;;5051314;28;20047;-63
2022/03/05 08:52:44;;;;;;;23.92;16.90;;;23.40;46.00;;;;;;5051282;28;20041;-64
2022/03/05 08:55:12;;;;;;;20.73;15.85;;;23.80;43.10;;;;;;5052938;28;20029;-63
2022/03/05 08:57:39;;;;;;;20.98;15.68;;;24.10;41.70;;;;;;5050365;28;20048;-63
2022/03/05 09:00:08;;;;;;;21.58;15.52;;;24.90;41.20;;;;;;5051181;28;20459;-64
2022/03/05 09:02:34;;;;;;;20.75;14.38;;;25.00;39.10;;;;;;5052583;28;20029;-63
2022/03/05 09:04:59;;;;;;;20.90;15.02;;;25.40;39.60;;;;;;5042758;28;20033;-64
2022/03/05 09:07:25;;;;;;;22.13;16.00;;;25.40;38.30;;;;;;5038258;28;20100;-63
2022/03/05 09:09:51;;;;;;;19.70;15.07;;;25.60;38.70;;;;;;5057697;28;20074;-63
2022/03/05 09:12:17;;;;;;;22.65;14.73;;;26.00;37.30;;;;;;5047960;28;20055;-64
2022/03/05 09:14:42;;;;;;;20.33;15.75;;;26.40;37.50;;;;;;5045331;28;20127;-64
2022/03/05 09:17:08;;;;;;;21.38;16.00;;;26.50;36.40;;;;;;5044983;28;20043;-64
2022/03/05 09:19:34;;;;;;;20.50;15.27;;;26.70;36.50;;;;;;5043467;28;20028;-64
2022/03/05 09:22:00;;;;;;;19.48;15.05;;;27.00;36.80;;;;;;5046491;28;20128;-64
2022/03/05 09:24:26;;;;;;;20.50;15.48;;;26.90;36.40;;;;;;5060814;28;20037;-64
2022/03/05 09:26:51;;;;;;;21.70;15.32;;;27.30;36.60;;;;;;5041240;28;20064;-64
2022/03/05 09:29:19;;;;;;;21.67;15.07;;;27.40;35.20;;;;;;5045100;28;20036;-64
2022/03/05 09:31:45;;;;;;;18.48;14.60;;;27.60;34.70;;;;;;5043226;28;20039;-64
2022/03/05 09:34:11;;;;;;;19.40;14.88;;;27.40;35.80;;;;;;5044177;28;20034;-64
2022/03/05 09:36:37;;;;;;;18.85;13.98;;;27.70;35.80;;;;;;5050432;28;20115;-64
2022/03/05 09:39:03;;;;;;;17.25;13.75;;;27.50;36.60;;;;;;5044134;28;20043;-64
2022/03/05 09:41:29;;;;;;;18.27;13.85;;;27.90;35.40;;;;;;5044483;28;20059;-64
2022/03/05 09:43:54;;;;;;;29.63;21.50;;;28.10;36.00;;;;;;5044131;28;20036;-64
2022/03/05 09:46:22;;;;;;;17.70;14.48;;;27.90;35.20;;;;;;5045451;28;20025;-64
2022/03/05 09:48:52;;;;;;;19.38;14.45;;;28.00;34.70;;;;;;5038677;28;20029;-65
2022/03/05 09:51:20;;;;;;;18.33;14.05;;;27.70;35.30;;;;;;5047896;28;20037;-64
2022/03/05 09:53:46;;;;;;;17.13;13.00;;;28.20;35.50;;;;;;5044895;28;20554;-64
2022/03/05 09:56:12;;;;;;;17.42;13.48;;;28.30;35.00;;;;;;5043992;28;20033;-64
2022/03/05 09:58:38;;;;;;;16.38;12.77;;;28.40;34.50;;;;;;5044385;28;20021;-64
2022/03/05 10:01:04;;;;;;;18.40;13.70;;;28.50;34.30;;;;;;5045205;28;20052;-64
2022/03/05 10:03:45;;;;;;;17.50;13.98;;;28.60;35.10;;;;;;5048830;28;20040;-64
2022/03/05 10:06:29;;;;;;;16.92;13.00;;;28.40;34.00;;;;;;5037687;28;20445;-64
2022/03/05 10:08:56;;;;;;;17.92;14.27;;;28.60;32.90;;;;;;5035756;28;20575;-64
2022/03/05 10:11:24;;;;;;;16.58;13.30;;;28.50;32.60;;;;;;5039388;28;20033;-64
2022/03/05 10:13:50;;;;;;;17.92;13.25;;;28.50;33.60;;;;;;5036244;28;20048;-64
2022/03/05 10:16:29;;;;;;;19.80;13.43;;;28.50;32.60;;;;;;5041377;28;20095;-65
2022/03/05 10:18:57;;;;;;;16.60;13.27;;;28.10;32.40;;;;;;5042503;28;20074;-65
2022/03/05 10:21:31;;;;;;;16.75;13.40;;;27.80;32.40;;;;;;5050628;28;20481;-65
2022/03/05 10:24:09;;;;;;;17.70;13.77;;;26.90;33.20;;;;;;5048017;28;20087;-66
2022/03/05 10:26:55;;;;;;;18.00;13.20;;;24.70;32.20;;;;;;5044166;28;20029;-66
2022/03/05 10:29:24;;;;;;;16.92;12.45;;;22.10;35.00;;;;;;5041259;28;20401;-66
2022/03/05 10:32:02;;;;;;;16.52;12.75;;;20.60;38.10;;;;;;5041253;28;20033;-66
2022/03/05 10:34:51;;;;;;;18.98;13.88;;;19.50;39.50;;;;;;5045209;28;20106;-65
2022/03/05 10:37:17;;;;;;;17.42;13.65;;;19.10;39.30;;;;;;5030302;28;20561;-66
2022/03/05 10:39:43;;;;;;;18.10;14.00;;;18.60;40.50;;;;;;5036544;28;20052;-66
2022/03/05 10:42:20;;;;;;;19.40;13.57;;;18.30;40.40;;;;;;5045396;28;20489;-65
2022/03/05 10:44:59;;;;;;;19.80;13.88;;;18.00;41.10;;;;;;5040638;28;20064;-66
2022/03/05 10:47:25;;;;;;;20.17;15.35;;;17.80;42.10;;;;;;5041031;28;20033;-66
2022/03/05 10:49:51;;;;;;;19.58;14.45;;;17.80;43.00;;;;;;5040548;28;20029;-65
2022/03/05 10:52:17;;;;;;;20.05;14.85;;;17.70;41.80;;;;;;5036673;28;20025;-65
2022/03/05 10:54:44;;;;;;;20.17;13.82;;;17.60;40.70;;;;;;5036498;28;20432;-66
2022/03/05 10:57:17;;;;;;;20.30;13.63;;;17.40;42.40;;;;;;5051635;28;20055;-65
2022/03/05 10:59:52;;;;;;;19.63;14.25;;;17.30;43.00;;;;;;5044070;28;20033;-67
2022/03/05 11:02:20;;;;;;;20.20;15.02;;;17.30;41.80;;;;;;5040384;28;20033;-66
2022/03/05 11:04:47;;;;;;;20.27;14.55;;;17.30;42.10;;;;;;5044927;28;20040;-67
2022/03/05 11:07:17;;;;;;;19.20;14.55;;;17.30;42.30;;;;;;5041759;28;20610;-65
2022/03/05 11:09:43;;;;;;;20.23;14.70;;;17.20;41.20;;;;;;5042258;28;20020;-65
2022/03/05 11:12:15;;;;;;;20.75;14.40;;;17.20;41.70;;;;;;5043476;28;20105;-65
2022/03/05 11:14:46;;;;;;;22.23;14.27;;;17.20;42.00;;;;;;5044107;28;20069;-65
2022/03/05 11:17:12;;;;;;;20.90;14.10;;;17.10;40.80;;;;;;5049140;28;20099;-65
2022/03/05 11:19:39;;;;;;;20.65;14.65;;;17.20;40.90;;;;;;5041691;28;20021;-65
2022/03/05 11:22:05;;;;;;;21.35;14.35;;;17.20;43.30;;;;;;5043818;28;20128;-65
2022/03/05 11:24:31;;;;;;;19.50;13.45;;;17.20;41.90;;;;;;5045588;28;20505;-65
2022/03/05 11:26:58;;;;;;;19.45;13.48;;;17.30;43.50;;;;;;5049248;28;20040;-65
2022/03/05 11:29:27;;;;;;;21.52;14.27;;;17.30;42.80;;;;;;5045099;28;20520;-65
2022/03/05 11:32:10;;;;;;;20.80;15.00;;;17.20;42.10;;;;;;5044883;28;20021;-65
2022/03/05 11:34:44;;;;;;;19.38;14.15;;;17.10;40.80;;;;;;5051047;28;20029;-64
2022/03/05 11:37:36;;;;;;;21.88;14.18;;;17.00;44.70;;;;;;5050438;28;20025;-64
2022/03/05 11:40:05;;;;;;;19.92;13.55;;;17.00;42.90;;;;;;5042916;28;20024;-65
2022/03/05 11:42:37;;;;;;;18.90;13.55;;;17.00;41.70;;;;;;5051264;28;20033;-66
2022/03/05 11:45:27;;;;;;;21.08;13.65;;;17.00;41.80;;;;;;5050380;28;20041;-65
2022/03/05 11:47:54;;;;;;;21.55;13.35;;;17.00;42.80;;;;;;5049740;28;20033;-67
2022/03/05 11:50:21;;;;;;;18.70;13.70;;;17.20;41.10;;;;;;5050008;28;20500;-68
2022/03/05 11:53:03;;;;;;;17.23;12.40;;;17.20;42.00;;;;;;5050186;28;20467;-67
2022/03/05 11:55:29;;;;;;;18.42;13.13;;;17.20;41.80;;;;;;5038863;28;20021;-68
2022/03/05 11:57:55;;;;;;;17.60;11.93;;;17.20;42.10;;;;;;5065663;28;20559;-68
2022/03/05 12:00:26;;;;;;;19.38;11.82;;;17.30;43.30;;;;;;5051297;28;20485;-68
2022/03/05 12:02:54;;;;;;;18.42;13.50;;;17.50;42.70;;;;;;5049388;28;20063;-68
2022/03/05 12:05:38;;;;;;;21.75;14.40;;;17.40;40.50;;;;;;5045144;28;20428;-68
2022/03/05 12:08:04;;;;;;;;;;;17.50;41.10;;;;;;5048902;28;20025;-68
2022/03/05 12:10:31;;;;;;;17.90;13.00;;;17.70;40.90;;;;;;5050098;28;22331;-68
2022/03/05 12:12:59;;;;;;;18.65;12.55;;;17.80;42.80;;;;;;5047845;28;20144;-68
2022/03/05 12:15:34;;;;;;;19.50;12.77;;;18.00;40.10;;;;;;5051143;28;20033;-67
2022/03/05 12:18:02;;;;;;;19.80;12.82;;;18.10;41.50;;;;;;5047572;28;20102;-68
2022/03/05 12:20:33;;;;;;;18.70;12.57;;;18.40;39.50;;;;;;5049741;28;20065;-68
2022/03/05 12:23:07;;;;;;;19.52;13.30;;;18.60;41.60;;;;;;5052604;28;20028;-68
2022/03/05 12:25:35;;;;;;;19.00;13.20;;;18.90;38.40;;;;;;5040909;28;20029;-69
2022/03/05 12:28:03;;;;;;;18.40;12.68;;;19.30;38.50;;;;;;5053495;28;20484;-67
2022/03/05 12:30:37;;;;;;;18.58;13.45;;;20.50;38.00;;;;;;5042126;28;20413;-66
2022/03/05 12:33:05;;;;;;;18.60;13.13;;;22.40;37.30;;;;;;5053644;28;20429;-68
2022/03/05 12:35:32;;;;;;;18.25;13.48;;;23.50;34.60;;;;;;5056269;28;20797;-66